sensor_id;sensor_type;location;lat;lon;timestamp;pressure;altitude;pressure_sealevel;temperature;humidity
65800;BME280;52544;48.116;11.660;2022-07-23T00:00:09;95651.97;;;24.43;57.58
65800;BME280;52544;48.116;11.660;2022-07-23T00:02:35;95647.16;;;24.45;57.74
65800;BME280;52544;48.116;11.660;2022-07-23T00:05:00;95641.16;;;24.43;58.49
65800;BME280;52544;48.116;11.660;2022-07-23T00:07:26;95656.97;;;24.39;58.17
65800;BME280;52544;48.116;11.660;2022-07-23T00:09:51;95650.91;;;24.44;57.43
65800;BME280;52544;48.116;11.660;2022-07-23T00:12:17;95645.72;;;24.36;58.42
65800;BME280;52544;48.116;11.660;2022-07-23T00:14:42;95634.91;;;24.29;58.53
65800;BME280;52544;48.116;11.660;2022-07-23T00:17:08;95637.59;;;24.36;58.17
65800;BME280;52544;48.116;11.660;2022-07-23T00:19:33;95630.31;;;24.36;57.47
65800;BME280;52544;48.116;11.660;2022-07-23T00:21:59;95634.50;;;24.32;57.77
65800;BME280;52544;48.116;11.660;2022-07-23T00:24:24;95633.03;;;24.30;58.46
65800;BME280;52544;48.116;11.660;2022-07-23T00:26:49;95625.31;;;24.33;56.86
65800;BME280;52544;48.116;11.660;2022-07-23T00:29:15;95634.09;;;24.29;57.74
65800;BME280;52544;48.116;11.660;2022-07-23T00:31:40;95650.97;;;24.24;57.42
65800;BME280;52544;48.116;11.660;2022-07-23T00:34:06;95652.00;;;24.23;57.24
65800;BME280;52544;48.116;11.660;2022-07-23T00:36:32;95645.16;;;24.20;57.18
65800;BME280;52544;48.116;11.660;2022-07-23T00:38:57;95649.09;;;24.25;56.70
65800;BME280;52544;48.116;11.660;2022-07-23T00:41:23;95642.03;;;24.24;56.10
65800;BME280;52544;48.116;11.660;2022-07-23T00:43:48;95640.78;;;24.26;55.62
65800;BME280;52544;48.116;11.660;2022-07-23T00:46:19;95637.25;;;24.19;55.95
65800;BME280;52544;48.116;11.660;2022-07-23T00:48:45;95651.19;;;24.16;55.24
65800;BME280;52544;48.116;11.660;2022-07-23T00:51:10;95651.59;;;24.19;55.10
65800;BME280;52544;48.116;11.660;2022-07-23T00:53:36;95649.91;;;24.25;55.23
65800;BME280;52544;48.116;11.660;2022-07-23T00:56:01;95658.66;;;24.27;54.61
65800;BME280;52544;48.116;11.660;2022-07-23T00:58:27;95662.41;;;24.19;55.62
65800;BME280;52544;48.116;11.660;2022-07-23T01:00:52;95674.88;;;24.20;55.89
65800;BME280;52544;48.116;11.660;2022-07-23T01:03:18;95682.81;;;24.15;57.44
65800;BME280;52544;48.116;11.660;2022-07-23T01:05:44;95701.56;;;24.10;57.79
65800;BME280;52544;48.116;11.660;2022-07-23T01:08:10;95693.25;;;24.05;58.13
65800;BME280;52544;48.116;11.660;2022-07-23T01:10:36;95701.19;;;24.00;58.45
65800;BME280;52544;48.116;11.660;2022-07-23T01:13:06;95718.00;;;24.02;58.61
65800;BME280;52544;48.116;11.660;2022-07-23T01:15:34;95733.59;;;24.00;58.54
65800;BME280;52544;48.116;11.660;2022-07-23T01:18:00;95757.72;;;24.02;58.17
65800;BME280;52544;48.116;11.660;2022-07-23T01:20:26;95780.38;;;23.94;58.75
65800;BME280;52544;48.116;11.660;2022-07-23T01:22:52;95783.91;;;24.01;57.83
65800;BME280;52544;48.116;11.660;2022-07-23T01:25:18;95813.22;;;24.04;57.82
65800;BME280;52544;48.116;11.660;2022-07-23T01:27:44;95822.78;;;24.07;57.81
65800;BME280;52544;48.116;11.660;2022-07-23T01:30:10;95802.19;;;23.99;55.32
65800;BME280;52544;48.116;11.660;2022-07-23T01:32:35;95815.50;;;23.94;53.76
65800;BME280;52544;48.116;11.660;2022-07-23T01:35:01;95827.16;;;23.94;53.86
65800;BME280;52544;48.116;11.660;2022-07-23T01:37:27;95845.59;;;23.64;53.62
65800;BME280;52544;48.116;11.660;2022-07-23T01:39:52;95855.94;;;23.34;54.49
65800;BME280;52544;48.116;11.660;2022-07-23T01:42:17;95825.97;;;23.09;53.86
65800;BME280;52544;48.116;11.660;2022-07-23T01:44:43;95814.31;;;22.95;53.14
65800;BME280;52544;48.116;11.660;2022-07-23T01:47:08;95811.53;;;22.82;52.68
65800;BME280;52544;48.116;11.660;2022-07-23T01:49:34;95801.16;;;22.86;52.32
65800;BME280;52544;48.116;11.660;2022-07-23T01:51:59;95805.31;;;22.82;52.38
65800;BME280;52544;48.116;11.660;2022-07-23T01:54:28;95810.25;;;22.78;53.05
65800;BME280;52544;48.116;11.660;2022-07-23T01:56:54;95815.06;;;22.83;53.65
65800;BME280;52544;48.116;11.660;2022-07-23T01:59:21;95823.50;;;22.66;55.13
65800;BME280;52544;48.116;11.660;2022-07-23T02:01:46;95809.78;;;22.61;56.07
65800;BME280;52544;48.116;11.660;2022-07-23T02:04:12;95799.31;;;22.45;56.92
65800;BME280;52544;48.116;11.660;2022-07-23T02:06:37;95802.22;;;22.43;57.21
65800;BME280;52544;48.116;11.660;2022-07-23T02:09:03;95790.56;;;22.36;57.86
65800;BME280;52544;48.116;11.660;2022-07-23T02:11:28;95779.34;;;22.33;57.28
65800;BME280;52544;48.116;11.660;2022-07-23T02:13:54;95800.75;;;22.41;57.02
65800;BME280;52544;48.116;11.660;2022-07-23T02:16:19;95807.78;;;22.42;57.04
65800;BME280;52544;48.116;11.660;2022-07-23T02:18:44;95806.34;;;22.39;58.28
65800;BME280;52544;48.116;11.660;2022-07-23T02:21:12;95819.16;;;22.31;59.91
65800;BME280;52544;48.116;11.660;2022-07-23T02:23:37;95803.91;;;22.16;62.49
65800;BME280;52544;48.116;11.660;2022-07-23T02:26:03;95790.66;;;22.15;63.52
65800;BME280;52544;48.116;11.660;2022-07-23T02:28:28;95779.06;;;21.93;65.53
65800;BME280;52544;48.116;11.660;2022-07-23T02:30:53;95774.44;;;21.80;65.69
65800;BME280;52544;48.116;11.660;2022-07-23T02:33:19;95759.53;;;21.84;64.76
65800;BME280;52544;48.116;11.660;2022-07-23T02:35:44;95750.72;;;21.69;65.72
65800;BME280;52544;48.116;11.660;2022-07-23T02:38:09;95749.06;;;21.68;65.86
65800;BME280;52544;48.116;11.660;2022-07-23T02:40:35;95765.16;;;21.61;67.35
65800;BME280;52544;48.116;11.660;2022-07-23T02:43:00;95755.56;;;21.52;67.61
65800;BME280;52544;48.116;11.660;2022-07-23T02:45:26;95750.41;;;21.57;68.10
65800;BME280;52544;48.116;11.660;2022-07-23T02:47:51;95758.50;;;21.57;68.99
65800;BME280;52544;48.116;11.660;2022-07-23T02:50:17;95751.41;;;21.50;69.63
65800;BME280;52544;48.116;11.660;2022-07-23T02:52:42;95765.31;;;21.32;71.46
65800;BME280;52544;48.116;11.660;2022-07-23T02:55:07;95760.38;;;21.35;73.26
65800;BME280;52544;48.116;11.660;2022-07-23T02:57:33;95794.13;;;21.16;74.82
65800;BME280;52544;48.116;11.660;2022-07-23T02:59:58;95822.09;;;21.01;75.69
65800;BME280;52544;48.116;11.660;2022-07-23T03:02:24;95873.03;;;21.02;75.40
65800;BME280;52544;48.116;11.660;2022-07-23T03:04:51;95878.69;;;21.07;73.36
65800;BME280;52544;48.116;11.660;2022-07-23T03:07:17;95848.69;;;21.10;77.34
65800;BME280;52544;48.116;11.660;2022-07-23T03:09:42;95835.91;;;21.12;77.89
65800;BME280;52544;48.116;11.660;2022-07-23T03:12:08;95855.84;;;20.82;83.13
65800;BME280;52544;48.116;11.660;2022-07-23T03:14:33;95854.91;;;20.75;82.05
65800;BME280;52544;48.116;11.660;2022-07-23T03:16:59;95861.31;;;20.74;83.17
65800;BME280;52544;48.116;11.660;2022-07-23T03:19:26;95843.50;;;20.72;84.95
65800;BME280;52544;48.116;11.660;2022-07-23T03:21:52;95842.75;;;20.64;83.88
65800;BME280;52544;48.116;11.660;2022-07-23T03:24:17;95846.41;;;20.56;85.67
65800;BME280;52544;48.116;11.660;2022-07-23T03:26:45;95849.81;;;20.50;83.86
65800;BME280;52544;48.116;11.660;2022-07-23T03:29:11;95848.59;;;20.38;84.08
65800;BME280;52544;48.116;11.660;2022-07-23T03:31:36;95851.00;;;20.33;84.82
65800;BME280;52544;48.116;11.660;2022-07-23T03:34:02;95849.81;;;20.35;83.88
65800;BME280;52544;48.116;11.660;2022-07-23T03:36:27;95838.84;;;20.37;84.42
65800;BME280;52544;48.116;11.660;2022-07-23T03:38:53;95825.41;;;20.37;83.77
65800;BME280;52544;48.116;11.660;2022-07-23T03:41:19;95798.53;;;20.37;83.12
65800;BME280;52544;48.116;11.660;2022-07-23T03:43:45;95789.56;;;20.44;82.04
65800;BME280;52544;48.116;11.660;2022-07-23T03:46:10;95782.41;;;20.37;82.30
65800;BME280;52544;48.116;11.660;2022-07-23T03:48:36;95753.31;;;20.40;82.20
65800;BME280;52544;48.116;11.660;2022-07-23T03:51:01;95732.09;;;20.45;80.99
65800;BME280;52544;48.116;11.660;2022-07-23T03:53:27;95704.84;;;20.34;81.89
65800;BME280;52544;48.116;11.660;2022-07-23T03:55:52;95688.47;;;20.29;81.55
65800;BME280;52544;48.116;11.660;2022-07-23T03:58:18;95688.09;;;20.32;79.76
65800;BME280;52544;48.116;11.660;2022-07-23T04:00:43;95716.25;;;20.36;81.86
65800;BME280;52544;48.116;11.660;2022-07-23T04:03:09;95754.63;;;20.30;83.21
65800;BME280;52544;48.116;11.660;2022-07-23T04:05:34;95751.38;;;20.34;82.54
65800;BME280;52544;48.116;11.660;2022-07-23T04:07:59;95756.84;;;20.26;84.80
65800;BME280;52544;48.116;11.660;2022-07-23T04:10:25;95757.78;;;20.18;85.02
65800;BME280;52544;48.116;11.660;2022-07-23T04:12:50;95743.34;;;20.19;85.09
65800;BME280;52544;48.116;11.660;2022-07-23T04:15:15;95735.34;;;20.26;85.51
65800;BME280;52544;48.116;11.660;2022-07-23T04:17:41;95744.53;;;20.32;87.03
65800;BME280;52544;48.116;11.660;2022-07-23T04:20:07;95742.25;;;20.14;87.48
65800;BME280;52544;48.116;11.660;2022-07-23T04:22:32;95748.25;;;20.16;87.86
65800;BME280;52544;48.116;11.660;2022-07-23T04:24:58;95736.09;;;20.20;87.71
65800;BME280;52544;48.116;11.660;2022-07-23T04:27:23;95732.13;;;20.16;87.42
65800;BME280;52544;48.116;11.660;2022-07-23T04:29:49;95731.56;;;20.20;89.35
65800;BME280;52544;48.116;11.660;2022-07-23T04:32:14;95727.91;;;20.43;89.22
65800;BME280;52544;48.116;11.660;2022-07-23T04:34:40;95706.22;;;20.59;88.23
65800;BME280;52544;48.116;11.660;2022-07-23T04:37:05;95699.53;;;20.55;85.52
65800;BME280;52544;48.116;11.660;2022-07-23T04:39:31;95689.00;;;20.54;86.10
65800;BME280;52544;48.116;11.660;2022-07-23T04:41:56;95709.22;;;20.35;86.17
65800;BME280;52544;48.116;11.660;2022-07-23T04:44:22;95719.22;;;20.41;87.08
65800;BME280;52544;48.116;11.660;2022-07-23T04:46:47;95715.69;;;20.40;89.08
65800;BME280;52544;48.116;11.660;2022-07-23T04:49:12;95724.22;;;20.44;88.36
65800;BME280;52544;48.116;11.660;2022-07-23T04:51:38;95712.22;;;20.46;87.22
65800;BME280;52544;48.116;11.660;2022-07-23T04:54:03;95719.31;;;20.47;86.95
65800;BME280;52544;48.116;11.660;2022-07-23T04:56:29;95715.50;;;20.57;86.27
65800;BME280;52544;48.116;11.660;2022-07-23T04:58:54;95705.75;;;20.56;84.19
65800;BME280;52544;48.116;11.660;2022-07-23T05:01:20;95703.34;;;20.61;83.06
65800;BME280;52544;48.116;11.660;2022-07-23T05:03:45;95707.91;;;20.60;81.75
65800;BME280;52544;48.116;11.660;2022-07-23T05:06:11;95695.44;;;20.59;79.20
65800;BME280;52544;48.116;11.660;2022-07-23T05:08:36;95695.34;;;20.67;76.75
65800;BME280;52544;48.116;11.660;2022-07-23T05:11:01;95690.31;;;20.64;77.73
65800;BME280;52544;48.116;11.660;2022-07-23T05:13:27;95699.16;;;20.58;80.03
65800;BME280;52544;48.116;11.660;2022-07-23T05:15:52;95696.38;;;20.66;78.90
65800;BME280;52544;48.116;11.660;2022-07-23T05:18:18;95698.56;;;20.78;79.90
65800;BME280;52544;48.116;11.660;2022-07-23T05:20:43;95705.22;;;20.82;78.86
65800;BME280;52544;48.116;11.660;2022-07-23T05:23:09;95709.63;;;20.89;78.10
65800;BME280;52544;48.116;11.660;2022-07-23T05:25:35;95707.78;;;20.90;76.66
65800;BME280;52544;48.116;11.660;2022-07-23T05:28:00;95709.25;;;20.92;74.99
65800;BME280;52544;48.116;11.660;2022-07-23T05:30:26;95714.50;;;21.01;75.86
65800;BME280;52544;48.116;11.660;2022-07-23T05:32:51;95708.66;;;20.97;76.23
65800;BME280;52544;48.116;11.660;2022-07-23T05:35:17;95717.78;;;20.96;78.33
65800;BME280;52544;48.116;11.660;2022-07-23T05:37:42;95718.59;;;20.96;79.48
65800;BME280;52544;48.116;11.660;2022-07-23T05:40:09;95718.16;;;20.93;76.68
65800;BME280;52544;48.116;11.660;2022-07-23T05:42:38;95722.66;;;20.86;77.28
65800;BME280;52544;48.116;11.660;2022-07-23T05:45:05;95716.03;;;20.88;75.61
65800;BME280;52544;48.116;11.660;2022-07-23T05:47:45;95724.75;;;20.90;74.28
65800;BME280;52544;48.116;11.660;2022-07-23T05:50:11;95732.41;;;20.93;74.31
65800;BME280;52544;48.116;11.660;2022-07-23T05:52:38;95734.00;;;21.03;75.05
65800;BME280;52544;48.116;11.660;2022-07-23T05:55:04;95732.81;;;21.12;75.29
65800;BME280;52544;48.116;11.660;2022-07-23T05:57:29;95741.06;;;21.10;73.64
65800;BME280;52544;48.116;11.660;2022-07-23T05:59:55;95740.25;;;21.10;74.30
65800;BME280;52544;48.116;11.660;2022-07-23T06:02:20;95744.16;;;21.07;73.88
65800;BME280;52544;48.116;11.660;2022-07-23T06:04:46;95746.06;;;21.13;72.72
65800;BME280;52544;48.116;11.660;2022-07-23T06:07:11;95758.50;;;21.14;72.96
65800;BME280;52544;48.116;11.660;2022-07-23T06:09:37;95763.88;;;21.14;74.22
65800;BME280;52544;48.116;11.660;2022-07-23T06:12:02;95762.22;;;21.13;75.94
65800;BME280;52544;48.116;11.660;2022-07-23T06:14:28;95770.28;;;21.13;73.63
65800;BME280;52544;48.116;11.660;2022-07-23T06:16:53;95765.38;;;21.17;72.68
65800;BME280;52544;48.116;11.660;2022-07-23T06:19:19;95771.00;;;21.22;72.71
65800;BME280;52544;48.116;11.660;2022-07-23T06:21:44;95756.97;;;21.27;74.09
65800;BME280;52544;48.116;11.660;2022-07-23T06:24:10;95747.69;;;21.29;77.31
65800;BME280;52544;48.116;11.660;2022-07-23T06:26:35;95745.56;;;21.25;75.58
65800;BME280;52544;48.116;11.660;2022-07-23T06:29:00;95736.66;;;21.24;75.27
65800;BME280;52544;48.116;11.660;2022-07-23T06:31:26;95732.41;;;21.15;76.45
65800;BME280;52544;48.116;11.660;2022-07-23T06:33:51;95716.22;;;21.08;76.98
65800;BME280;52544;48.116;11.660;2022-07-23T06:36:17;95719.97;;;21.07;78.78
65800;BME280;52544;48.116;11.660;2022-07-23T06:38:42;95722.00;;;21.05;78.83
65800;BME280;52544;48.116;11.660;2022-07-23T06:41:08;95743.50;;;21.05;79.21
65800;BME280;52544;48.116;11.660;2022-07-23T06:43:33;95738.91;;;20.99;79.77
65800;BME280;52544;48.116;11.660;2022-07-23T06:45:59;95738.84;;;20.92;78.87
65800;BME280;52544;48.116;11.660;2022-07-23T06:48:24;95753.50;;;20.90;79.19
65800;BME280;52544;48.116;11.660;2022-07-23T06:50:49;95757.09;;;20.97;79.88
65800;BME280;52544;48.116;11.660;2022-07-23T06:53:17;95761.72;;;21.03;77.44
65800;BME280;52544;48.116;11.660;2022-07-23T06:55:43;95767.72;;;21.05;77.51
65800;BME280;52544;48.116;11.660;2022-07-23T06:58:08;95772.97;;;21.13;77.08
65800;BME280;52544;48.116;11.660;2022-07-23T07:00:35;95781.31;;;21.18;78.07
65800;BME280;52544;48.116;11.660;2022-07-23T07:03:01;95777.22;;;21.22;77.62
65800;BME280;52544;48.116;11.660;2022-07-23T07:05:27;95775.81;;;21.27;74.71
65800;BME280;52544;48.116;11.660;2022-07-23T07:07:54;95778.41;;;21.35;74.77
65800;BME280;52544;48.116;11.660;2022-07-23T07:10:20;95769.13;;;21.37;73.24
65800;BME280;52544;48.116;11.660;2022-07-23T07:12:45;95772.88;;;21.43;75.46
65800;BME280;52544;48.116;11.660;2022-07-23T07:15:11;95769.16;;;21.44;75.41
65800;BME280;52544;48.116;11.660;2022-07-23T07:17:37;95771.34;;;21.55;74.60
65800;BME280;52544;48.116;11.660;2022-07-23T07:20:03;95772.66;;;21.66;74.55
65800;BME280;52544;48.116;11.660;2022-07-23T07:22:29;95774.56;;;21.72;75.42
65800;BME280;52544;48.116;11.660;2022-07-23T07:24:54;95778.53;;;21.76;75.89
65800;BME280;52544;48.116;11.660;2022-07-23T07:27:20;95789.50;;;21.75;77.60
65800;BME280;52544;48.116;11.660;2022-07-23T07:29:45;95783.97;;;21.83;76.48
65800;BME280;52544;48.116;11.660;2022-07-23T07:32:11;95773.25;;;21.89;76.33
65800;BME280;52544;48.116;11.660;2022-07-23T07:34:36;95767.66;;;21.91;75.78
65800;BME280;52544;48.116;11.660;2022-07-23T07:37:02;95772.22;;;21.90;76.94
65800;BME280;52544;48.116;11.660;2022-07-23T07:39:27;95786.91;;;21.88;76.69
65800;BME280;52544;48.116;11.660;2022-07-23T07:41:53;95803.72;;;21.90;78.96
65800;BME280;52544;48.116;11.660;2022-07-23T07:44:18;95802.63;;;21.84;78.92
65800;BME280;52544;48.116;11.660;2022-07-23T07:46:44;95799.75;;;21.86;79.95
65800;BME280;52544;48.116;11.660;2022-07-23T07:49:09;95803.22;;;21.80;79.30
65800;BME280;52544;48.116;11.660;2022-07-23T07:51:35;95804.22;;;21.79;76.65
65800;BME280;52544;48.116;11.660;2022-07-23T07:54:01;95801.81;;;21.84;76.25
65800;BME280;52544;48.116;11.660;2022-07-23T07:56:26;95808.16;;;21.76;77.48
65800;BME280;52544;48.116;11.660;2022-07-23T07:58:51;95815.00;;;21.79;77.47
65800;BME280;52544;48.116;11.660;2022-07-23T08:01:17;95819.56;;;21.78;77.38
65800;BME280;52544;48.116;11.660;2022-07-23T08:03:44;95811.94;;;21.82;76.65
65800;BME280;52544;48.116;11.660;2022-07-23T08:06:09;95811.72;;;21.83;77.82
65800;BME280;52544;48.116;11.660;2022-07-23T08:08:35;95811.31;;;21.80;78.60
65800;BME280;52544;48.116;11.660;2022-07-23T08:11:00;95810.28;;;21.81;75.74
65800;BME280;52544;48.116;11.660;2022-07-23T08:13:26;95806.50;;;21.75;76.68
65800;BME280;52544;48.116;11.660;2022-07-23T08:15:51;95807.97;;;21.78;77.90
65800;BME280;52544;48.116;11.660;2022-07-23T08:18:18;95812.97;;;21.81;76.14
65800;BME280;52544;48.116;11.660;2022-07-23T08:20:44;95811.31;;;21.80;76.75
65800;BME280;52544;48.116;11.660;2022-07-23T08:23:09;95810.06;;;21.82;77.91
65800;BME280;52544;48.116;11.660;2022-07-23T08:25:37;95821.66;;;21.83;78.07
65800;BME280;52544;48.116;11.660;2022-07-23T08:28:06;95819.44;;;21.86;77.06
65800;BME280;52544;48.116;11.660;2022-07-23T08:30:32;95825.06;;;21.91;77.23
65800;BME280;52544;48.116;11.660;2022-07-23T08:33:06;95826.78;;;21.99;76.49
65800;BME280;52544;48.116;11.660;2022-07-23T08:35:38;95833.81;;;22.00;76.54
65800;BME280;52544;48.116;11.660;2022-07-23T08:38:07;95835.09;;;22.04;73.82
65800;BME280;52544;48.116;11.660;2022-07-23T08:40:39;95828.06;;;22.03;74.63
65800;BME280;52544;48.116;11.660;2022-07-23T08:43:07;95833.81;;;22.00;75.66
65800;BME280;52544;48.116;11.660;2022-07-23T08:45:37;95823.03;;;22.00;74.45
65800;BME280;52544;48.116;11.660;2022-07-23T08:48:05;95831.78;;;22.02;74.54
65800;BME280;52544;48.116;11.660;2022-07-23T08:50:32;95826.03;;;22.12;75.20
65800;BME280;52544;48.116;11.660;2022-07-23T08:53:00;95825.31;;;22.18;73.49
65800;BME280;52544;48.116;11.660;2022-07-23T08:55:26;95834.88;;;22.27;73.14
65800;BME280;52544;48.116;11.660;2022-07-23T08:57:52;95832.00;;;22.29;72.95
65800;BME280;52544;48.116;11.660;2022-07-23T09:00:19;95827.44;;;22.29;71.54
65800;BME280;52544;48.116;11.660;2022-07-23T09:02:46;95833.25;;;22.33;71.10
65800;BME280;52544;48.116;11.660;2022-07-23T09:05:13;95829.72;;;22.32;71.32
65800;BME280;52544;48.116;11.660;2022-07-23T09:10:55;95840.31;;;22.34;69.46
65800;BME280;52544;48.116;11.660;2022-07-23T09:15:55;95847.56;;;22.33;70.50
65800;BME280;52544;48.116;11.660;2022-07-23T09:18:32;95851.16;;;22.40;70.31
65800;BME280;52544;48.116;11.660;2022-07-23T09:21:09;95869.63;;;22.43;71.01
65800;BME280;52544;48.116;11.660;2022-07-23T09:26:17;95874.66;;;22.53;73.46
65800;BME280;52544;48.116;11.660;2022-07-23T09:28:54;95879.84;;;22.55;71.84
65800;BME280;52544;48.116;11.660;2022-07-23T09:31:21;95878.88;;;22.62;70.63
65800;BME280;52544;48.116;11.660;2022-07-23T09:33:46;95877.88;;;22.70;69.96
65800;BME280;52544;48.116;11.660;2022-07-23T09:36:12;95874.81;;;22.80;70.71
65800;BME280;52544;48.116;11.660;2022-07-23T09:38:49;95867.22;;;22.97;70.86
65800;BME280;52544;48.116;11.660;2022-07-23T09:41:15;95876.03;;;23.12;68.83
65800;BME280;52544;48.116;11.660;2022-07-23T09:43:40;95867.97;;;23.32;68.81
65800;BME280;52544;48.116;11.660;2022-07-23T09:46:26;95886.09;;;23.51;68.07
65800;BME280;52544;48.116;11.660;2022-07-23T09:48:55;95882.59;;;23.64;67.17
65800;BME280;52544;48.116;11.660;2022-07-23T09:51:22;95869.16;;;23.71;66.64
65800;BME280;52544;48.116;11.660;2022-07-23T09:54:04;95865.00;;;23.75;67.82
65800;BME280;52544;48.116;11.660;2022-07-23T09:56:30;95861.06;;;23.84;66.67
65800;BME280;52544;48.116;11.660;2022-07-23T09:58:56;95860.41;;;24.08;66.24
65800;BME280;52544;48.116;11.660;2022-07-23T10:01:30;95858.34;;;24.24;62.77
65800;BME280;52544;48.116;11.660;2022-07-23T10:03:56;95856.88;;;24.41;63.35
65800;BME280;52544;48.116;11.660;2022-07-23T10:06:23;95847.50;;;24.57;59.89
65800;BME280;52544;48.116;11.660;2022-07-23T10:08:51;95844.09;;;24.81;62.96
65800;BME280;52544;48.116;11.660;2022-07-23T10:11:18;95856.25;;;25.17;60.77
65800;BME280;52544;48.116;11.660;2022-07-23T10:13:44;95851.00;;;25.29;55.37
65800;BME280;52544;48.116;11.660;2022-07-23T10:16:23;95836.94;;;25.45;56.24
65800;BME280;52544;48.116;11.660;2022-07-23T10:18:49;95842.19;;;25.72;56.46
65800;BME280;52544;48.116;11.660;2022-07-23T10:21:27;95833.16;;;25.84;54.02
65800;BME280;52544;48.116;11.660;2022-07-23T10:24:16;95814.19;;;26.09;55.38
65800;BME280;52544;48.116;11.660;2022-07-23T10:30:02;95823.78;;;26.55;48.55
65800;BME280;52544;48.116;11.660;2022-07-23T10:32:47;95815.34;;;26.63;47.41
65800;BME280;52544;48.116;11.660;2022-07-23T10:37:49;95814.56;;;26.93;47.73
65800;BME280;52544;48.116;11.660;2022-07-23T10:40:18;95811.38;;;26.96;48.02
65800;BME280;52544;48.116;11.660;2022-07-23T10:42:48;95811.09;;;27.04;47.53
65800;BME280;52544;48.116;11.660;2022-07-23T10:45:26;95817.91;;;26.77;46.69
65800;BME280;52544;48.116;11.660;2022-07-23T10:47:53;95815.94;;;26.65;48.21
65800;BME280;52544;48.116;11.660;2022-07-23T10:50:29;95807.66;;;26.60;47.92
65800;BME280;52544;48.116;11.660;2022-07-23T10:57:58;95803.97;;;26.30;48.21
65800;BME280;52544;48.116;11.660;2022-07-23T11:00:25;95808.94;;;26.33;48.63
65800;BME280;52544;48.116;11.660;2022-07-23T11:02:53;95804.41;;;26.27;47.54
65800;BME280;52544;48.116;11.660;2022-07-23T11:05:21;95810.72;;;26.21;47.98
65800;BME280;52544;48.116;11.660;2022-07-23T11:13:31;95810.53;;;25.97;48.03
65800;BME280;52544;48.116;11.660;2022-07-23T11:31:59;95807.06;;;25.58;49.96
65800;BME280;52544;48.116;11.660;2022-07-23T11:37:02;95802.09;;;25.49;49.90
65800;BME280;52544;48.116;11.660;2022-07-23T11:39:29;95801.09;;;25.43;50.37
65800;BME280;52544;48.116;11.660;2022-07-23T11:41:55;95807.59;;;25.42;50.47
65800;BME280;52544;48.116;11.660;2022-07-23T11:44:27;95810.06;;;25.43;49.85
65800;BME280;52544;48.116;11.660;2022-07-23T11:49:23;95808.88;;;25.33;50.99
65800;BME280;52544;48.116;11.660;2022-07-23T11:52:11;95799.72;;;25.34;50.99
65800;BME280;52544;48.116;11.660;2022-07-23T11:54:52;95799.78;;;25.21;51.47
65800;BME280;52544;48.116;11.660;2022-07-23T11:57:19;95811.47;;;25.14;51.99
65800;BME280;52544;48.116;11.660;2022-07-23T11:59:47;95808.16;;;25.12;52.17
65800;BME280;52544;48.116;11.660;2022-07-23T12:02:15;95814.63;;;25.11;52.92
65800;BME280;52544;48.116;11.660;2022-07-23T12:04:43;95814.84;;;25.10;52.78
65800;BME280;52544;48.116;11.660;2022-07-23T12:07:29;95810.03;;;25.12;52.08
65800;BME280;52544;48.116;11.660;2022-07-23T12:09:57;95809.44;;;25.03;53.26
65800;BME280;52544;48.116;11.660;2022-07-23T12:12:23;95811.50;;;25.01;53.30
65800;BME280;52544;48.116;11.660;2022-07-23T12:14:51;95801.75;;;25.00;53.49
65800;BME280;52544;48.116;11.660;2022-07-23T12:17:17;95798.22;;;24.93;54.04
65800;BME280;52544;48.116;11.660;2022-07-23T12:19:43;95807.63;;;24.90;53.68
65800;BME280;52544;48.116;11.660;2022-07-23T12:22:09;95809.28;;;24.85;54.02
65800;BME280;52544;48.116;11.660;2022-07-23T12:24:57;95806.22;;;24.81;54.62
65800;BME280;52544;48.116;11.660;2022-07-23T12:27:24;95805.38;;;24.81;54.34
65800;BME280;52544;48.116;11.660;2022-07-23T12:29:50;95808.28;;;24.79;54.35
65800;BME280;52544;48.116;11.660;2022-07-23T12:34:48;95801.44;;;24.77;54.84
65800;BME280;52544;48.116;11.660;2022-07-23T12:37:35;95804.97;;;24.71;54.72
65800;BME280;52544;48.116;11.660;2022-07-23T12:40:23;95798.34;;;24.66;55.36
65800;BME280;52544;48.116;11.660;2022-07-23T12:42:51;95801.28;;;24.65;55.67
65800;BME280;52544;48.116;11.660;2022-07-23T12:45:17;95800.44;;;24.64;55.09
65800;BME280;52544;48.116;11.660;2022-07-23T12:48:04;95801.69;;;24.62;55.41
65800;BME280;52544;48.116;11.660;2022-07-23T12:50:43;95802.50;;;24.62;55.43
65800;BME280;52544;48.116;11.660;2022-07-23T12:53:16;95803.16;;;24.58;55.23
65800;BME280;52544;48.116;11.660;2022-07-23T12:55:43;95800.88;;;24.55;56.35
65800;BME280;52544;48.116;11.660;2022-07-23T12:58:11;95807.56;;;24.52;55.63
65800;BME280;52544;48.116;11.660;2022-07-23T13:00:55;95810.66;;;24.49;55.63
65800;BME280;52544;48.116;11.660;2022-07-23T13:03:23;95812.53;;;24.55;54.74
65800;BME280;52544;48.116;11.660;2022-07-23T13:05:49;95799.63;;;24.51;55.83
65800;BME280;52544;48.116;11.660;2022-07-23T13:08:15;95812.13;;;24.52;56.21
65800;BME280;52544;48.116;11.660;2022-07-23T13:10:40;95806.09;;;24.56;55.79
65800;BME280;52544;48.116;11.660;2022-07-23T13:13:12;95811.03;;;24.66;55.25
65800;BME280;52544;48.116;11.660;2022-07-23T13:15:37;95814.56;;;24.66;55.81
65800;BME280;52544;48.116;11.660;2022-07-23T13:18:03;95819.56;;;24.69;55.93
65800;BME280;52544;48.116;11.660;2022-07-23T13:20:28;95810.41;;;24.71;56.81
65800;BME280;52544;48.116;11.660;2022-07-23T13:22:54;95811.69;;;24.68;55.50
65800;BME280;52544;48.116;11.660;2022-07-23T13:25:20;95807.69;;;24.71;55.62
65800;BME280;52544;48.116;11.660;2022-07-23T13:27:45;95813.75;;;24.73;56.59
65800;BME280;52544;48.116;11.660;2022-07-23T13:30:11;95814.97;;;24.70;55.45
65800;BME280;52544;48.116;11.660;2022-07-23T13:32:36;95811.22;;;24.71;56.29
65800;BME280;52544;48.116;11.660;2022-07-23T13:35:03;95815.16;;;24.75;55.31
65800;BME280;52544;48.116;11.660;2022-07-23T13:37:29;95807.91;;;24.69;56.45